Time;durP1;ratioP1;P1;durP2;ratioP2;P2;SDS_P1;SDS_P2;PMS_P1;PMS_P2;Temp;Humidity;BMP_temperature;BMP_pressure;BME280_temperature;BME280_humidity;BME280_pressure;Samples;Min_cycle;Max_cycle;Signal;HPM_P1;HPM_P2
2022/03/07 00:01:52;;;;;;;11.83;10.67;;;-0.30;99.90;;;;;;5014082;28;20537;-66
2022/03/07 00:04:18;;;;;;;12.53;11.33;;;-0.30;99.90;;;;;;5024510;28;20215;-66
2022/03/07 00:06:45;;;;;;;13.03;11.93;;;-0.20;99.90;;;;;;5027220;28;20176;-66
2022/03/07 00:09:11;;;;;;;12.90;11.70;;;-0.30;99.90;;;;;;5020443;28;20215;-66
2022/03/07 00:11:37;;;;;;;12.10;11.00;;;-0.20;99.90;;;;;;5013303;28;20733;-66
2022/03/07 00:14:03;;;;;;;12.07;10.97;;;-0.30;99.90;;;;;;5022228;28;20168;-66
2022/03/07 00:16:30;;;;;;;12.60;11.50;;;-0.30;99.90;;;;;;5020002;28;20184;-66
2022/03/07 00:18:55;;;;;;;12.63;11.37;;;-0.30;99.90;;;;;;5021115;28;20203;-66
2022/03/07 00:21:21;;;;;;;12.53;11.47;;;-0.30;99.90;;;;;;5027615;28;20197;-66
2022/03/07 00:23:47;;;;;;;14.03;11.60;;;-0.40;99.90;;;;;;5025002;28;20168;-66
2022/03/07 00:26:13;;;;;;;12.63;11.33;;;-0.40;99.90;;;;;;5014320;28;20246;-66
2022/03/07 00:28:39;;;;;;;12.53;11.10;;;-0.40;99.90;;;;;;5017734;28;20183;-66
2022/03/07 00:31:06;;;;;;;13.10;11.77;;;-0.40;99.90;;;;;;5023670;28;20207;-67
2022/03/07 00:33:32;;;;;;;11.80;10.80;;;-0.30;99.90;;;;;;5030968;28;20467;-67
2022/03/07 00:35:58;;;;;;;12.77;11.53;;;-0.30;99.90;;;;;;5019490;28;20255;-67
2022/03/07 00:38:24;;;;;;;13.30;12.00;;;-0.30;99.90;;;;;;5013026;28;20561;-66
2022/03/07 00:40:50;;;;;;;13.07;11.83;;;-0.30;99.90;;;;;;5022757;28;20194;-66
2022/03/07 00:43:16;;;;;;;13.43;12.23;;;-0.20;99.90;;;;;;5031827;28;20183;-66
2022/03/07 00:45:41;;;;;;;13.47;11.87;;;-0.20;99.90;;;;;;5031776;28;20188;-66
2022/03/07 00:48:07;;;;;;;13.10;12.03;;;0.00;99.90;;;;;;5032626;28;20602;-67
2022/03/07 00:50:33;;;;;;;11.93;11.03;;;0.00;99.90;;;;;;5018114;28;20203;-66
2022/03/07 00:52:59;;;;;;;12.33;11.33;;;-0.10;99.90;;;;;;5012425;28;20545;-66
2022/03/07 00:55:25;;;;;;;12.60;11.67;;;0.00;99.90;;;;;;5013639;28;20173;-66
2022/03/07 00:57:51;;;;;;;11.70;10.80;;;0.00;99.90;;;;;;5012643;28;20199;-66
2022/03/07 01:00:17;;;;;;;12.80;11.70;;;0.00;99.90;;;;;;5022758;28;20290;-66
2022/03/07 01:02:42;;;;;;;14.70;13.43;;;-0.10;99.90;;;;;;5012402;28;20176;-66
2022/03/07 01:05:08;;;;;;;13.27;12.27;;;-0.10;99.90;;;;;;5013442;28;20187;-66
2022/03/07 01:07:34;;;;;;;12.50;11.50;;;-0.20;99.90;;;;;;5011179;28;20176;-67
2022/03/07 01:10:01;;;;;;;12.20;11.13;;;-0.30;99.90;;;;;;5017611;28;20211;-66
2022/03/07 01:12:26;;;;;;;11.90;10.70;;;-0.40;99.90;;;;;;5010884;28;20172;-67
2022/03/07 01:14:52;;;;;;;11.93;10.97;;;-0.50;99.90;;;;;;5013495;28;20190;-66
2022/03/07 01:17:18;;;;;;;11.47;10.43;;;-0.60;99.90;;;;;;5010916;28;20199;-66
2022/03/07 01:19:43;;;;;;;12.10;10.93;;;-0.70;99.90;;;;;;5017753;28;20248;-66
2022/03/07 01:22:09;;;;;;;11.80;10.90;;;-0.70;99.90;;;;;;5031747;28;20171;-66
2022/03/07 01:24:36;;;;;;;12.43;11.43;;;-0.70;99.90;;;;;;5028902;28;20175;-66
2022/03/07 01:27:03;;;;;;;11.87;10.23;;;-0.70;99.90;;;;;;5025009;28;20168;-66
2022/03/07 01:29:28;;;;;;;11.53;10.57;;;-0.70;99.90;;;;;;5011795;28;20208;-66
2022/03/07 01:31:54;;;;;;;11.73;10.70;;;-0.70;99.90;;;;;;5022781;28;20223;-66
2022/03/07 01:34:20;;;;;;;11.53;10.53;;;-0.70;99.90;;;;;;5011614;28;20618;-66
2022/03/07 01:36:45;;;;;;;11.73;10.67;;;-0.60;99.90;;;;;;5028991;28;20222;-66
2022/03/07 01:39:11;;;;;;;11.23;10.23;;;-0.60;99.90;;;;;;5028698;28;20203;-66
2022/03/07 01:41:37;;;;;;;11.77;10.87;;;-0.60;99.90;;;;;;5030141;28;20542;-66
2022/03/07 01:44:03;;;;;;;12.20;11.17;;;-0.50;99.90;;;;;;5029561;28;20221;-66
2022/03/07 01:46:31;;;;;;;12.50;11.40;;;-0.50;99.90;;;;;;5010719;28;20552;-66
2022/03/07 01:48:57;;;;;;;13.20;11.90;;;-0.40;99.90;;;;;;5013068;28;20677;-66
2022/03/07 01:51:23;;;;;;;13.93;11.53;;;-0.40;99.90;;;;;;5024346;28;20218;-66
2022/03/07 01:53:48;;;;;;;12.80;11.20;;;-0.40;99.90;;;;;;5019894;28;20176;-66
2022/03/07 01:56:14;;;;;;;11.37;10.37;;;-0.30;99.90;;;;;;5023707;28;20233;-66
2022/03/07 01:58:40;;;;;;;13.10;11.93;;;-0.30;99.90;;;;;;5022711;28;20254;-66
2022/03/07 02:01:05;;;;;;;12.47;11.17;;;-0.30;99.90;;;;;;5018209;28;20199;-66
2022/03/07 02:03:31;;;;;;;11.23;10.17;;;-0.30;99.90;;;;;;5031138;28;20167;-66
2022/03/07 02:05:57;;;;;;;11.63;10.73;;;-0.30;99.90;;;;;;5015688;28;20266;-66
2022/03/07 02:08:23;;;;;;;11.60;10.80;;;-0.30;99.90;;;;;;5012688;28;20202;-66
2022/03/07 02:10:49;;;;;;;11.67;10.77;;;-0.30;99.90;;;;;;5029519;28;20195;-66
2022/03/07 02:13:17;;;;;;;12.13;11.03;;;-0.40;99.90;;;;;;5029830;28;20266;-66
2022/03/07 02:15:43;;;;;;;11.47;10.50;;;-0.50;99.90;;;;;;5011814;28;20184;-66
2022/03/07 02:18:09;;;;;;;14.13;10.80;;;-0.60;99.90;;;;;;5010996;28;20186;-66
2022/03/07 02:20:36;;;;;;;11.47;10.67;;;-0.70;99.90;;;;;;5015806;28;20232;-66
2022/03/07 02:23:01;;;;;;;11.53;10.50;;;-0.80;99.90;;;;;;5012335;28;20172;-66
2022/03/07 02:25:27;;;;;;;11.43;10.27;;;-0.80;99.90;;;;;;5022996;28;20175;-66
2022/03/07 02:27:53;;;;;;;11.70;10.70;;;-0.80;99.90;;;;;;5024902;28;20182;-66
2022/03/07 02:30:18;;;;;;;11.63;10.73;;;-1.00;99.90;;;;;;5031301;28;20196;-66
2022/03/07 02:32:44;;;;;;;11.90;10.83;;;-1.10;99.90;;;;;;5014857;28;20892;-66
2022/03/07 02:35:12;;;;;;;11.63;10.73;;;-1.20;99.90;;;;;;5015720;28;20176;-66
2022/03/07 02:37:37;;;;;;;11.93;10.93;;;-1.30;99.90;;;;;;5029892;28;20215;-66
2022/03/07 02:40:04;;;;;;;12.40;11.27;;;-1.30;99.90;;;;;;5023079;28;20239;-66
2022/03/07 02:42:29;;;;;;;12.40;11.20;;;-1.50;99.90;;;;;;5011268;28;20195;-66
2022/03/07 02:44:55;;;;;;;13.67;12.27;;;-1.60;99.90;;;;;;5015995;28;20266;-66
2022/03/07 02:47:23;;;;;;;11.80;10.80;;;-1.60;99.90;;;;;;5029830;28;20176;-66
2022/03/07 02:49:49;;;;;;;13.00;11.73;;;-1.70;99.90;;;;;;5029172;28;20203;-66
2022/03/07 02:52:15;;;;;;;14.73;11.77;;;-1.80;99.90;;;;;;5022986;28;20568;-66
2022/03/07 02:54:40;;;;;;;12.80;11.53;;;-1.90;99.90;;;;;;5024420;28;20184;-66
2022/03/07 02:57:07;;;;;;;13.17;11.90;;;-1.90;99.90;;;;;;5010191;28;20187;-66
2022/03/07 02:59:33;;;;;;;14.53;13.23;;;-1.90;99.90;;;;;;5012302;28;20560;-66
2022/03/07 03:01:58;;;;;;;12.87;11.63;;;-2.00;99.90;;;;;;5025044;28;20190;-66
2022/03/07 03:04:24;;;;;;;13.57;12.43;;;-2.10;99.90;;;;;;5027620;28;20642;-66
2022/03/07 03:06:50;;;;;;;12.97;11.77;;;-2.20;99.90;;;;;;5023356;28;20274;-66
2022/03/07 03:09:15;;;;;;;14.37;12.63;;;-2.20;99.90;;;;;;5029100;28;20175;-66
2022/03/07 03:11:41;;;;;;;14.27;12.93;;;-2.30;99.90;;;;;;5030803;28;20191;-66
2022/03/07 03:14:06;;;;;;;14.37;13.17;;;-2.40;99.90;;;;;;5030734;28;20178;-66
2022/03/07 03:16:33;;;;;;;15.27;13.77;;;-2.40;99.90;;;;;;5014812;28;20523;-66
2022/03/07 03:18:58;;;;;;;15.87;14.37;;;-2.30;99.90;;;;;;5013343;28;20375;-66
2022/03/07 03:21:24;;;;;;;14.23;12.80;;;-2.20;99.90;;;;;;5023908;28;20257;-66
2022/03/07 03:23:50;;;;;;;13.33;12.13;;;-2.10;99.90;;;;;;5012919;28;20185;-66
2022/03/07 03:26:15;;;;;;;14.07;12.67;;;-2.10;99.90;;;;;;5028944;28;20183;-66
2022/03/07 03:28:42;;;;;;;14.17;12.90;;;-2.20;99.90;;;;;;5015438;28;20183;-66
2022/03/07 03:31:11;;;;;;;13.53;12.33;;;-2.10;99.90;;;;;;5022859;28;20244;-66
2022/03/07 03:33:37;;;;;;;13.50;12.20;;;-2.10;99.90;;;;;;5012867;28;20172;-66
2022/03/07 03:36:03;;;;;;;14.97;13.57;;;-2.10;99.90;;;;;;5029131;28;20192;-66
2022/03/07 03:38:29;;;;;;;13.67;12.40;;;-1.90;99.90;;;;;;5034053;28;20207;-66
2022/03/07 03:40:55;;;;;;;14.50;13.20;;;-1.90;99.90;;;;;;5030962;28;20595;-66
2022/03/07 03:43:21;;;;;;;14.73;13.33;;;-1.90;99.90;;;;;;5032347;28;20194;-66
2022/03/07 03:45:47;;;;;;;13.93;12.50;;;-2.00;99.90;;;;;;5019219;28;20203;-66
2022/03/07 03:48:13;;;;;;;12.87;11.87;;;-2.00;99.90;;;;;;5014096;28;20660;-66
2022/03/07 03:50:38;;;;;;;13.30;12.23;;;-2.10;99.90;;;;;;5014181;28;20557;-67
2022/03/07 03:53:04;;;;;;;14.17;12.87;;;-2.20;99.90;;;;;;5030631;28;20171;-66
2022/03/07 03:55:31;;;;;;;14.17;12.77;;;-2.30;99.90;;;;;;5023065;28;20176;-67
2022/03/07 03:57:57;;;;;;;15.17;13.00;;;-2.30;99.90;;;;;;5033972;28;20250;-67
2022/03/07 04:00:24;;;;;;;15.27;13.63;;;-2.40;99.90;;;;;;5030704;28;20298;-66
2022/03/07 04:02:49;;;;;;;13.43;12.27;;;-2.50;99.90;;;;;;5016833;28;20179;-66
2022/03/07 04:05:15;;;;;;;14.30;12.93;;;-2.60;99.90;;;;;;5023282;28;20176;-67
2022/03/07 04:07:41;;;;;;;13.57;12.40;;;-2.60;99.90;;;;;;5015184;28;20175;-66
2022/03/07 04:10:09;;;;;;;18.90;12.93;;;-2.60;99.90;;;;;;5030416;28;20196;-66
2022/03/07 04:12:35;;;;;;;13.33;12.13;;;-2.60;99.90;;;;;;5032809;28;20274;-66
2022/03/07 04:15:01;;;;;;;14.40;13.00;;;-2.60;99.90;;;;;;5023815;28;20230;-66
2022/03/07 04:17:26;;;;;;;13.77;12.47;;;-2.50;99.90;;;;;;5013651;28;20176;-66
2022/03/07 04:19:52;;;;;;;14.23;13.10;;;-2.40;99.90;;;;;;5014514;28;20216;-66
2022/03/07 04:22:18;;;;;;;14.27;12.77;;;-2.40;99.90;;;;;;5023310;28;20637;-66
2022/03/07 04:24:44;;;;;;;13.93;12.50;;;-2.40;99.90;;;;;;5027099;28;20180;-66
2022/03/07 04:27:09;;;;;;;13.47;11.73;;;-2.40;99.90;;;;;;5012977;28;20182;-66
2022/03/07 04:29:35;;;;;;;13.30;12.13;;;-2.30;99.90;;;;;;5017315;28;20171;-66
2022/03/07 04:32:01;;;;;;;12.67;11.63;;;-2.30;99.90;;;;;;5018423;28;20180;-67
2022/03/07 04:34:27;;;;;;;12.90;11.60;;;-2.40;99.90;;;;;;5031776;28;20189;-66
2022/03/07 04:36:52;;;;;;;13.37;12.13;;;-2.40;99.90;;;;;;5030547;28;20711;-66
2022/03/07 04:39:18;;;;;;;13.50;12.27;;;-2.40;99.90;;;;;;5033161;28;20599;-66
2022/03/07 04:41:44;;;;;;;13.87;12.67;;;-2.40;99.90;;;;;;5014739;28;20192;-66
2022/03/07 04:44:11;;;;;;;16.57;13.17;;;-2.50;99.90;;;;;;5012357;28;20172;-66
2022/03/07 04:46:36;;;;;;;14.23;12.83;;;-2.50;99.90;;;;;;5013145;28;20177;-65
2022/03/07 04:49:02;;;;;;;14.53;13.27;;;-2.50;99.90;;;;;;5012863;28;20225;-66
2022/03/07 04:51:28;;;;;;;13.33;11.87;;;-2.50;99.90;;;;;;5028839;28;20243;-65
2022/03/07 04:53:53;;;;;;;14.37;13.07;;;-2.50;99.90;;;;;;5013578;28;20177;-65
2022/03/07 04:56:19;;;;;;;14.53;13.23;;;-2.50;99.90;;;;;;5030831;28;20547;-65
2022/03/07 04:58:45;;;;;;;14.17;12.80;;;-2.50;99.90;;;;;;5029212;28;20287;-65
2022/03/07 05:01:10;;;;;;;18.03;13.47;;;-2.60;99.90;;;;;;5015588;28;20196;-66
2022/03/07 05:03:36;;;;;;;14.33;13.13;;;-2.60;99.90;;;;;;5019731;28;20172;-66
2022/03/07 05:06:02;;;;;;;14.30;13.00;;;-2.60;99.90;;;;;;5017295;28;20165;-66
2022/03/07 05:08:28;;;;;;;13.47;12.37;;;-2.60;99.90;;;;;;5012893;28;20173;-65
2022/03/07 05:10:53;;;;;;;14.00;12.43;;;-2.60;99.90;;;;;;5015201;28;20208;-65
2022/03/07 05:13:19;;;;;;;14.10;12.33;;;-2.60;99.90;;;;;;5012131;28;20211;-65
2022/03/07 05:15:45;;;;;;;13.03;11.93;;;-2.60;99.90;;;;;;5028631;28;20207;-65
2022/03/07 05:18:10;;;;;;;12.97;11.87;;;-2.60;99.90;;;;;;5032009;28;20225;-66
2022/03/07 05:20:36;;;;;;;16.03;12.60;;;-2.60;99.90;;;;;;5019942;28;20258;-65
2022/03/07 05:23:01;;;;;;;14.13;12.77;;;-2.70;99.90;;;;;;5023282;28;20194;-66
2022/03/07 05:25:27;;;;;;;15.33;13.20;;;-2.60;99.90;;;;;;5025151;28;20267;-66
2022/03/07 05:27:53;;;;;;;13.47;12.33;;;-2.70;99.90;;;;;;5022732;28;20179;-66
2022/03/07 05:30:21;;;;;;;13.03;11.93;;;-2.70;99.90;;;;;;5025651;28;20277;-65
2022/03/07 05:32:50;;;;;;;17.20;12.30;;;-2.80;99.90;;;;;;5031327;28;20211;-65
2022/03/07 05:35:16;;;;;;;15.23;13.63;;;-2.80;99.90;;;;;;5029990;28;20190;-66
2022/03/07 05:37:42;;;;;;;14.70;13.27;;;-2.90;99.90;;;;;;5016187;28;20184;-65
2022/03/07 05:40:09;;;;;;;12.63;11.63;;;-3.00;99.90;;;;;;5016624;28;20203;-65
2022/03/07 05:42:36;;;;;;;14.93;12.57;;;-3.00;99.90;;;;;;5017436;28;20184;-66
2022/03/07 05:45:02;;;;;;;17.13;12.60;;;-3.00;99.90;;;;;;5010574;28;20528;-66
2022/03/07 05:47:27;;;;;;;14.60;13.13;;;-3.10;99.90;;;;;;5028936;28;20284;-66
2022/03/07 05:49:53;;;;;;;13.70;12.33;;;-3.10;99.90;;;;;;5030145;28;20246;-65
2022/03/07 05:52:19;;;;;;;13.43;12.13;;;-3.20;99.90;;;;;;5025166;28;20266;-66
2022/03/07 05:54:44;;;;;;;14.20;12.87;;;-3.10;99.90;;;;;;5030404;28;20180;-65
2022/03/07 05:57:10;;;;;;;14.67;13.37;;;-3.10;99.90;;;;;;5026538;28;20180;-65
2022/03/07 05:59:36;;;;;;;13.53;12.33;;;-3.10;99.90;;;;;;5012040;28;20215;-66
2022/03/07 06:02:02;;;;;;;14.30;12.40;;;-3.10;99.90;;;;;;5016504;28;20192;-66
2022/03/07 06:04:27;;;;;;;14.40;13.10;;;-3.10;99.90;;;;;;5014416;28;20673;-66
2022/03/07 06:06:53;;;;;;;17.70;13.70;;;-3.00;99.90;;;;;;5031492;28;20191;-65
2022/03/07 06:09:19;;;;;;;16.10;14.77;;;-3.00;99.90;;;;;;5028438;28;20274;-66
2022/03/07 06:11:44;;;;;;;13.30;12.10;;;-3.00;99.90;;;;;;5026196;28;20653;-65
2022/03/07 06:14:10;;;;;;;14.37;13.00;;;-3.00;99.90;;;;;;5011473;28;20275;-66
2022/03/07 06:16:35;;;;;;;13.67;12.53;;;-2.90;99.90;;;;;;5011571;28;20184;-66
2022/03/07 06:19:01;;;;;;;14.67;13.20;;;-2.90;99.90;;;;;;5010098;28;20258;-66
2022/03/07 06:21:27;;;;;;;15.17;13.63;;;-2.80;99.90;;;;;;5013988;28;20200;-66
2022/03/07 06:23:53;;;;;;;15.27;13.57;;;-2.70;99.90;;;;;;5025002;28;20191;-65
2022/03/07 06:26:18;;;;;;;14.17;12.77;;;-2.60;99.90;;;;;;5011525;28;20230;-66
2022/03/07 06:28:44;;;;;;;17.70;14.57;;;-2.50;99.90;;;;;;5011378;28;20184;-65
2022/03/07 06:31:10;;;;;;;16.20;14.50;;;-2.40;99.90;;;;;;5011420;28;20200;-66
2022/03/07 06:33:36;;;;;;;17.80;15.90;;;-2.20;99.90;;;;;;5010353;28;20593;-67
2022/03/07 06:36:04;;;;;;;15.23;13.57;;;-2.10;99.90;;;;;;5024957;28;20216;-65
2022/03/07 06:38:29;;;;;;;15.40;13.40;;;-1.90;99.90;;;;;;5029883;28;20211;-66
2022/03/07 06:40:55;;;;;;;15.33;14.03;;;-1.80;99.90;;;;;;5019437;28;20212;-66
2022/03/07 06:43:21;;;;;;;14.47;13.03;;;-1.70;99.90;;;;;;5011143;28;20172;-65
2022/03/07 06:45:46;;;;;;;12.80;11.83;;;-1.60;99.90;;;;;;5028430;28;20184;-66
2022/03/07 06:48:12;;;;;;;14.33;10.37;;;-1.50;99.90;;;;;;5032305;28;20180;-66
2022/03/07 06:50:38;;;;;;;13.10;12.07;;;-1.40;99.90;;;;;;5027163;28;20295;-66
2022/03/07 06:53:04;;;;;;;12.13;11.07;;;-1.30;99.90;;;;;;5021523;28;20646;-66
2022/03/07 06:55:29;;;;;;;11.30;10.20;;;-1.30;99.90;;;;;;5017698;28;20176;-66
2022/03/07 06:57:55;;;;;;;12.43;11.23;;;-1.20;99.90;;;;;;5014497;28;20258;-66
2022/03/07 07:00:21;;;;;;;12.40;11.20;;;-1.10;99.90;;;;;;5013353;28;20250;-66
2022/03/07 07:02:47;;;;;;;11.53;10.63;;;-1.00;99.90;;;;;;5018098;28;20556;-66
2022/03/07 07:05:14;;;;;;;12.60;10.40;;;-0.90;99.90;;;;;;5033179;28;20187;-65
2022/03/07 07:07:42;;;;;;;12.53;11.50;;;-0.80;99.90;;;;;;5029401;28;20172;-66
2022/03/07 07:10:09;;;;;;;13.47;11.73;;;-0.70;99.90;;;;;;5014382;28;20196;-66
2022/03/07 07:12:35;;;;;;;14.40;11.83;;;-0.60;99.90;;;;;;5013955;28;20196;-65
2022/03/07 07:15:01;;;;;;;11.80;10.77;;;-0.40;99.90;;;;;;5014342;28;20185;-66
2022/03/07 07:17:26;;;;;;;11.73;10.83;;;-0.10;99.90;;;;;;5014601;28;20183;-66
2022/03/07 07:19:52;;;;;;;10.87;10.03;;;0.40;99.90;;;;;;5034116;28;20269;-66
2022/03/07 07:22:18;;;;;;;10.67;9.87;;;0.80;99.90;;;;;;5033757;28;20179;-67
2022/03/07 07:24:43;;;;;;;10.00;9.20;;;1.20;99.90;;;;;;5032511;28;20233;-66
2022/03/07 07:27:10;;;;;;;10.73;9.63;;;1.60;99.90;;;;;;5034033;28;20186;-66
2022/03/07 07:29:35;;;;;;;9.73;9.10;;;1.90;99.90;;;;;;5017201;28;20700;-66
2022/03/07 07:32:02;;;;;;;9.97;9.30;;;2.10;99.90;;;;;;5013857;28;20224;-65
2022/03/07 07:34:28;;;;;;;10.03;9.33;;;2.40;99.90;;;;;;5015464;28;20188;-66
2022/03/07 07:36:54;;;;;;;9.10;8.40;;;2.70;99.90;;;;;;5014583;28;20188;-66
2022/03/07 07:39:20;;;;;;;9.50;8.80;;;3.00;99.90;;;;;;5026892;28;20207;-66
2022/03/07 07:41:45;;;;;;;8.63;8.03;;;3.30;99.90;;;;;;5034132;28;20337;-66
2022/03/07 07:44:11;;;;;;;8.47;7.90;;;3.60;99.90;;;;;;5031856;28;20176;-66
2022/03/07 07:46:36;;;;;;;8.47;7.83;;;3.60;99.90;;;;;;5032560;28;20264;-66
2022/03/07 07:49:02;;;;;;;7.87;7.37;;;3.80;99.90;;;;;;5024314;28;20206;-66
2022/03/07 07:51:28;;;;;;;8.40;7.80;;;4.00;99.90;;;;;;5012499;28;20247;-66
2022/03/07 07:53:53;;;;;;;8.33;7.73;;;4.20;99.90;;;;;;5025000;28;20184;-66
2022/03/07 07:56:19;;;;;;;7.87;7.37;;;4.30;99.90;;;;;;5029973;28;20184;-66
2022/03/07 07:58:45;;;;;;;7.80;7.20;;;4.40;99.90;;;;;;5030536;28;20239;-65
2022/03/07 08:01:10;;;;;;;8.10;7.60;;;4.60;99.90;;;;;;5031854;28;20685;-65
2022/03/07 08:03:36;;;;;;;8.43;7.63;;;5.00;99.90;;;;;;5031847;28;20176;-66
2022/03/07 08:06:02;;;;;;;8.30;7.73;;;5.20;99.90;;;;;;5033301;28;20648;-66
2022/03/07 08:08:27;;;;;;;7.90;7.37;;;5.30;99.90;;;;;;5022480;28;20188;-66
2022/03/07 08:10:53;;;;;;;8.60;8.00;;;5.20;99.90;;;;;;5013800;28;20586;-66
2022/03/07 08:13:18;;;;;;;9.27;8.13;;;4.80;99.90;;;;;;5028494;28;20179;-66
2022/03/07 08:15:44;;;;;;;9.10;8.40;;;4.40;99.90;;;;;;5032153;28;20284;-67
2022/03/07 08:18:10;;;;;;;8.33;7.67;;;4.10;99.90;;;;;;5030174;28;20241;-67
2022/03/07 08:20:36;;;;;;;8.80;8.10;;;4.00;99.90;;;;;;5017149;28;20668;-67
2022/03/07 08:23:02;;;;;;;8.73;8.03;;;4.00;99.90;;;;;;5022701;28;20180;-67
2022/03/07 08:25:28;;;;;;;8.53;7.90;;;3.80;99.90;;;;;;5033152;28;20171;-67
2022/03/07 08:27:54;;;;;;;8.80;8.10;;;3.90;99.90;;;;;;5030060;28;20233;-67
2022/03/07 08:30:22;;;;;;;8.57;8.07;;;4.10;99.90;;;;;;5031452;28;20286;-67
2022/03/07 08:32:49;;;;;;;7.83;7.23;;;4.30;99.90;;;;;;5023283;28;20184;-67
2022/03/07 08:35:15;;;;;;;8.53;7.83;;;4.70;99.90;;;;;;5013338;28;20586;-67
2022/03/07 08:37:46;;;;;;;8.10;7.60;;;5.00;99.90;;;;;;5012885;28;20813;-67
2022/03/07 08:40:14;;;;;;;8.50;7.77;;;5.30;99.90;;;;;;5012776;28;20236;-67
2022/03/07 08:42:40;;;;;;;8.33;7.57;;;5.70;99.30;;;;;;5018004;28;20172;-67
2022/03/07 08:45:07;;;;;;;7.70;7.20;;;6.00;98.40;;;;;;5032665;28;20172;-67
2022/03/07 08:47:37;;;;;;;8.47;7.80;;;6.20;97.50;;;;;;5030037;28;20642;-67
2022/03/07 08:50:04;;;;;;;8.13;7.50;;;6.60;98.00;;;;;;5032695;28;20235;-67
2022/03/07 08:52:30;;;;;;;7.73;7.13;;;7.00;95.10;;;;;;5028985;28;20745;-64
2022/03/07 08:54:55;;;;;;;7.97;7.30;;;7.00;93.20;;;;;;5013695;28;20251;-67
2022/03/07 08:57:21;;;;;;;7.47;6.97;;;7.30;93.60;;;;;;5012538;28;20195;-67
2022/03/07 08:59:47;;;;;;;7.60;7.10;;;7.30;92.70;;;;;;5012904;28;20207;-65
2022/03/07 09:02:12;;;;;;;26.70;21.83;;;7.40;91.60;;;;;;5012252;28;20180;-65
2022/03/07 09:04:40;;;;;;;7.83;7.23;;;7.70;93.00;;;;;;5031215;28;20641;-65
2022/03/07 09:07:06;;;;;;;8.30;7.70;;;7.90;91.20;;;;;;5019506;28;20237;-64
2022/03/07 09:09:32;;;;;;;8.53;7.77;;;8.10;91.50;;;;;;5012396;28;20180;-65
2022/03/07 09:11:57;;;;;;;7.57;7.07;;;8.20;90.60;;;;;;5029492;28;20194;-65
2022/03/07 09:14:23;;;;;;;8.03;7.33;;;8.20;89.40;;;;;;5030896;28;20175;-66
2022/03/07 09:16:49;;;;;;;7.50;7.00;;;8.10;89.20;;;;;;5029418;28;20187;-66
2022/03/07 09:19:15;;;;;;;7.03;6.63;;;8.20;91.50;;;;;;5031741;28;20206;-66
2022/03/07 09:21:40;;;;;;;7.20;6.63;;;8.40;87.70;;;;;;5016894;28;20200;-66
2022/03/07 09:24:06;;;;;;;7.70;7.17;;;8.70;86.60;;;;;;5011906;28;20645;-66
2022/03/07 09:26:32;;;;;;;7.00;6.50;;;8.70;83.20;;;;;;5012066;28;20184;-66
2022/03/07 09:28:58;;;;;;;7.50;6.90;;;8.80;84.50;;;;;;5011801;28;20255;-66
2022/03/07 09:31:24;;;;;;;7.17;6.60;;;8.70;82.90;;;;;;5011031;28;20200;-66
2022/03/07 09:37:11;;;;;;;8.27;7.60;;;8.40;85.10;;;;;;4989316;28;20251;-66
2022/03/07 09:39:38;;;;;;;7.23;6.73;;;8.70;85.80;;;;;;5003231;28;20255;-66
2022/03/07 09:42:05;;;;;;;7.03;6.50;;;8.80;83.70;;;;;;5010351;28;20212;-66
2022/03/07 09:44:31;;;;;;;7.10;6.63;;;8.50;84.20;;;;;;5011677;28;20226;-66
2022/03/07 09:46:58;;;;;;;7.70;7.20;;;8.00;81.70;;;;;;4990615;28;20177;-66
2022/03/07 09:49:24;;;;;;;7.43;6.93;;;7.60;82.80;;;;;;5004635;28;20210;-66
2022/03/07 09:51:50;;;;;;;7.47;6.87;;;7.60;84.30;;;;;;5011303;28;20290;-66
2022/03/07 09:54:16;;;;;;;7.30;6.70;;;7.80;83.50;;;;;;5010277;28;20184;-65
2022/03/07 09:56:42;;;;;;;7.63;7.03;;;8.00;84.80;;;;;;5010527;28;20180;-66
2022/03/07 09:59:08;;;;;;;7.77;7.17;;;7.90;82.50;;;;;;5010322;28;20572;-66
2022/03/07 10:01:35;;;;;;;7.83;7.23;;;8.10;85.40;;;;;;5010477;28;20247;-65
2022/03/07 10:04:11;;;;;;;7.50;6.80;;;8.30;84.00;;;;;;5011006;28;20580;-66
2022/03/07 10:06:38;;;;;;;7.03;6.33;;;8.60;86.70;;;;;;5012295;28;20705;-66
2022/03/07 10:09:05;;;;;;;7.00;6.47;;;9.10;84.40;;;;;;5011503;28;20266;-66
2022/03/07 10:11:32;;;;;;;6.50;6.10;;;9.50;83.10;;;;;;5010260;28;20632;-66
2022/03/07 10:14:03;;;;;;;12.10;10.87;;;9.90;81.00;;;;;;5011245;28;20179;-65
2022/03/07 10:16:43;;;;;;;7.17;6.67;;;9.80;78.60;;;;;;5011769;28;20175;-66
2022/03/07 10:19:13;;;;;;;6.90;6.50;;;9.70;78.50;;;;;;5011639;28;20554;-67
2022/03/07 10:21:47;;;;;;;7.13;6.70;;;9.60;79.00;;;;;;5011822;28;20693;-66
2022/03/07 10:24:13;;;;;;;6.47;6.03;;;9.50;82.60;;;;;;5012939;28;20267;-66
2022/03/07 10:26:39;;;;;;;7.50;6.90;;;9.60;79.60;;;;;;5015453;28;20822;-66
2022/03/07 10:29:06;;;;;;;6.40;6.00;;;9.60;77.00;;;;;;5015329;28;20214;-67
2022/03/07 10:31:31;;;;;;;7.33;6.63;;;9.80;78.70;;;;;;5015656;28;20200;-65
2022/03/07 10:34:08;;;;;;;7.47;6.87;;;9.60;77.10;;;;;;5013020;28;20176;-65
2022/03/07 10:36:41;;;;;;;6.77;6.27;;;9.60;79.00;;;;;;5015639;28;20638;-65
2022/03/07 10:39:10;;;;;;;7.00;6.60;;;10.00;80.00;;;;;;5013780;28;20299;-67
2022/03/07 10:41:41;;;;;;;7.00;6.50;;;10.00;75.10;;;;;;5015233;28;20246;-67
2022/03/07 10:44:09;;;;;;;6.93;6.43;;;10.00;77.40;;;;;;5013999;28;20547;-67
2022/03/07 10:46:35;;;;;;;7.83;7.13;;;9.80;76.40;;;;;;5034445;28;20266;-66
2022/03/07 10:49:01;;;;;;;7.50;6.93;;;9.60;76.00;;;;;;5040381;28;20188;-66
2022/03/07 10:51:27;;;;;;;8.17;7.30;;;9.50;74.80;;;;;;5027256;28;20212;-66
2022/03/07 10:53:54;;;;;;;7.33;6.83;;;9.60;76.60;;;;;;5019990;28;20179;-66
2022/03/07 10:56:21;;;;;;;6.37;5.97;;;10.00;76.60;;;;;;5032703;28;20190;-66
2022/03/07 10:58:50;;;;;;;7.17;6.53;;;9.90;75.80;;;;;;5026627;28;20231;-66
2022/03/07 11:01:29;;;;;;;6.80;6.30;;;9.70;75.70;;;;;;5034506;28;20232;-66
2022/03/07 11:03:55;;;;;;;6.93;6.53;;;9.30;72.90;;;;;;5022351;28;20180;-65
2022/03/07 11:06:21;;;;;;;7.20;6.67;;;9.30;75.80;;;;;;5014695;28;20180;-66
2022/03/07 11:08:47;;;;;;;7.20;6.70;;;9.40;74.80;;;;;;5016152;28;20297;-67
2022/03/07 11:11:15;;;;;;;7.37;6.87;;;9.50;72.90;;;;;;5010922;28;20721;-65
2022/03/07 11:13:42;;;;;;;7.40;6.83;;;9.30;74.80;;;;;;5023125;28;20172;-66
2022/03/07 11:16:08;;;;;;;6.80;6.40;;;9.50;76.20;;;;;;5034444;28;20172;-66
2022/03/07 11:18:34;;;;;;;6.67;6.27;;;10.00;73.90;;;;;;5031472;28;20657;-66
2022/03/07 11:21:04;;;;;;;7.27;6.50;;;10.30;72.30;;;;;;5034177;28;20647;-65
2022/03/07 11:23:30;;;;;;;6.47;5.93;;;10.50;73.20;;;;;;5028682;28;20168;-66
2022/03/07 11:25:58;;;;;;;6.90;6.37;;;10.50;76.10;;;;;;5014300;28;20168;-66
2022/03/07 11:28:28;;;;;;;6.63;6.23;;;10.80;73.50;;;;;;5015405;28;20172;-66
2022/03/07 11:30:54;;;;;;;7.17;6.47;;;11.10;71.50;;;;;;5013250;28;20614;-66
2022/03/07 11:33:33;;;;;;;7.73;7.07;;;10.60;69.20;;;;;;5016284;28;20266;-66
2022/03/07 11:36:00;;;;;;;6.97;6.40;;;10.50;72.10;;;;;;5032173;28;20302;-66
2022/03/07 11:38:31;;;;;;;7.20;6.63;;;10.70;72.30;;;;;;5032570;28;20256;-66
2022/03/07 11:41:03;;;;;;;7.03;6.53;;;10.60;69.50;;;;;;5032743;28;20278;-66
2022/03/07 11:43:35;;;;;;;6.97;6.47;;;10.90;70.50;;;;;;5005906;28;20175;-66
2022/03/07 11:46:03;;;;;;;6.83;6.23;;;11.30;71.00;;;;;;5033849;28;20168;-66
2022/03/07 11:48:44;;;;;;;6.90;6.30;;;11.70;72.60;;;;;;5027091;28;20237;-66
2022/03/07 11:51:22;;;;;;;6.40;6.00;;;12.10;70.40;;;;;;5032385;28;20207;-66
2022/03/07 11:53:50;;;;;;;6.77;6.27;;;11.90;65.30;;;;;;5030660;28;20274;-66
2022/03/07 11:56:39;;;;;;;6.37;5.87;;;11.90;69.70;;;;;;5032326;28;20273;-66
2022/03/07 11:59:08;;;;;;;7.73;7.20;;;12.20;67.90;;;;;;5031572;28;20731;-66
2022/03/07 12:01:34;;;;;;;6.70;6.30;;;12.60;68.40;;;;;;5033730;28;20203;-66
2022/03/07 12:04:10;;;;;;;6.70;6.27;;;12.80;66.60;;;;;;5012272;28;20375;-66
2022/03/07 12:07:02;;;;;;;6.57;6.10;;;12.60;63.90;;;;;;5025028;28;20182;-66
2022/03/07 12:09:34;;;;;;;6.63;6.03;;;12.50;64.40;;;;;;5028283;28;20544;-66
2022/03/07 12:12:14;;;;;;;6.63;6.23;;;12.20;65.20;;;;;;5031518;28;20191;-65
2022/03/07 12:14:42;;;;;;;6.40;5.90;;;11.80;65.60;;;;;;5023395;28;20191;-66
2022/03/07 12:17:19;;;;;;;6.40;5.90;;;11.80;64.20;;;;;;5029483;28;20187;-66
2022/03/07 12:19:54;;;;;;;6.63;6.20;;;12.10;64.40;;;;;;5033216;28;20219;-66
2022/03/07 12:22:24;;;;;;;6.70;6.20;;;12.30;66.20;;;;;;5031292;28;20548;-66
2022/03/07 12:24:49;;;;;;;6.90;6.40;;;12.30;64.60;;;;;;5033538;28;20279;-67
2022/03/07 12:27:15;;;;;;;6.80;6.30;;;12.60;67.20;;;;;;5015969;28;20267;-67
2022/03/07 12:29:43;;;;;;;6.10;5.70;;;12.90;62.90;;;;;;5011931;28;20282;-67
2022/03/07 12:32:10;;;;;;;6.10;5.70;;;13.10;63.30;;;;;;5027313;28;20721;-67
2022/03/07 12:34:39;;;;;;;6.97;6.20;;;13.00;61.90;;;;;;5032065;28;20195;-67
2022/03/07 12:37:09;;;;;;;6.70;6.10;;;12.50;58.80;;;;;;5018849;28;20206;-67
2022/03/07 12:39:58;;;;;;;6.17;5.77;;;11.90;61.70;;;;;;5012847;28;20208;-67